Time;durP1;ratioP1;P1;durP2;ratioP2;P2;SDS_P1;SDS_P2;PMS_P1;PMS_P2;Temp;Humidity;BMP_temperature;BMP_pressure;BME280_temperature;BME280_humidity;BME280_pressure;Samples;Min_cycle;Max_cycle;Signal;HPM_P1;HPM_P2
2022/01/31 00:00:14;;;;;;;;;10.50;8.00;;;;;8.43;57.47;101698.41;5076681;28;45374;-63
2022/01/31 00:02:41;;;;;;;;;6.00;6.00;;;;;8.47;57.27;101694.78;5075295;27;45456;-62
2022/01/31 00:05:07;;;;;;;;;12.00;5.75;;;;;8.49;57.28;101687.66;5076177;27;45993;-66
2022/01/31 00:07:33;;;;;;;;;7.00;7.00;;;;;8.53;57.56;101697.22;5073984;28;45434;-58
2022/01/31 00:09:58;;;;;;;;;9.00;5.75;;;;;8.46;57.45;101679.75;5076399;27;45315;-64
2022/01/31 00:12:27;;;;;;;;;1.50;1.50;;;;;8.49;57.79;101672.59;5076673;27;45239;-60
2022/01/31 00:15:00;;;;;;;;;5.00;5.00;;;;;8.48;57.55;101670.00;5074795;28;46332;-62
2022/01/31 00:17:25;;;;;;;;;6.75;6.75;;;;;8.36;57.88;101638.56;5076171;27;45325;-58
2022/01/31 00:19:51;;;;;;;;;5.75;5.75;;;;;8.35;58.11;101635.03;5075691;27;45464;-62
2022/01/31 00:22:16;;;;;;;;;11.25;7.00;;;;;8.39;58.23;101647.28;5076373;28;45318;-66
2022/01/31 00:24:42;;;;;;;;;7.50;6.00;;;;;8.31;58.75;101635.13;5073932;27;46276;-64
2022/01/31 00:27:08;;;;;;;;;12.00;8.25;;;;;8.41;58.95;101647.22;5076139;27;45323;-60
2022/01/31 00:29:34;;;;;;;;;12.00;9.00;;;;;8.35;58.85;101644.78;5076521;27;45452;-62
2022/01/31 00:31:59;;;;;;;;;6.50;6.50;;;;;8.26;59.17;101633.50;5076293;27;45294;-68
2022/01/31 00:34:25;;;;;;;;;9.75;6.00;;;;;8.28;59.18;101631.66;5074565;28;45764;-61
2022/01/31 00:36:51;;;;;;;;;9.50;6.00;;;;;8.22;58.85;101617.75;5076236;27;45436;-63
2022/01/31 00:39:17;;;;;;;;;4.75;4.75;;;;;8.23;59.30;101628.28;5075001;27;45431;-67
2022/01/31 00:41:43;;;;;;;;;5.25;5.25;;;;;8.22;59.56;101631.00;5076035;27;45521;-65
2022/01/31 00:44:23;;;;;;;;;7.75;6.00;;;;;8.26;58.96;101637.94;5075892;27;46518;-63
2022/01/31 00:46:59;;;;;;;;;0.00;0.00;;;;;8.22;59.19;101647.75;5077481;28;45605;-65
2022/01/31 00:51:58;;;;;;;;;6.75;5.50;;;;;8.16;59.14;101625.84;5079472;27;45626;-63
2022/01/31 00:54:23;;;;;;;;;7.00;5.00;;;;;8.16;59.00;101632.03;5078966;27;46154;-64
2022/01/31 00:56:50;;;;;;;;;7.00;5.25;;;;;8.20;58.95;101632.78;5079120;27;45527;-60
2022/01/31 00:59:15;;;;;;;;;3.50;3.50;;;;;8.18;59.26;101629.31;5079117;27;45416;-65
2022/01/31 01:01:41;;;;;;;;;8.00;4.00;;;;;8.18;59.36;101630.19;5079360;27;45492;-63
2022/01/31 01:04:06;;;;;;;;;8.00;5.75;;;;;8.20;58.87;101595.69;5078309;28;45650;-66
2022/01/31 01:06:32;;;;;;;;;5.75;3.25;;;;;8.18;58.73;101598.41;5078837;27;45338;-70
2022/01/31 01:08:57;;;;;;;;;5.25;3.25;;;;;8.04;59.56;101558.22;5077540;27;45623;-67
2022/01/31 01:11:22;;;;;;;;;2.00;2.00;;;;;8.11;59.03;101580.09;5079326;27;45274;-66
2022/01/31 01:13:48;;;;;;;;;2.75;1.50;;;;;8.14;59.22;101583.50;5079292;27;46190;-63
2022/01/31 01:16:13;;;;;;;;;3.25;3.25;;;;;8.10;59.67;101579.22;5078998;27;45434;-69
2022/01/31 01:18:38;;;;;;;;;8.50;5.00;;;;;8.10;59.83;101579.22;5077565;27;45717;-62
2022/01/31 01:21:04;;;;;;;;;7.25;2.00;;;;;8.12;59.06;101561.50;5078012;27;46377;-64
2022/01/31 01:23:29;;;;;;;;;6.25;3.75;;;;;8.10;59.54;101557.16;5075859;28;45524;-65
2022/01/31 01:25:55;;;;;;;;;3.25;2.00;;;;;8.16;59.58;101547.22;5075314;27;45230;-65
2022/01/31 01:28:22;;;;;;;;;8.00;3.25;;;;;8.16;60.49;101544.59;5077434;28;45464;-66
2022/01/31 01:30:49;;;;;;;;;1.50;1.50;;;;;8.16;59.76;101518.09;5077927;27;45613;-63
2022/01/31 01:33:19;;;;;;;;;5.75;5.00;;;;;8.15;60.12;101513.72;5076525;28;45459;-62
2022/01/31 01:35:47;;;;;;;;;9.75;2.00;;;;;8.06;60.39;101507.81;5077153;28;45420;-63
2022/01/31 01:38:16;;;;;;;;;5.00;2.00;;;;;8.05;60.78;101499.00;5077438;27;45866;-62
2022/01/31 01:40:42;;;;;;;;;5.50;3.00;;;;;7.99;60.53;101504.50;5074673;28;46563;-60
2022/01/31 01:43:08;;;;;;;;;5.00;3.75;;;;;8.04;60.71;101491.09;5075226;28;48187;-66
2022/01/31 01:45:34;;;;;;;;;2.50;2.50;;;;;7.98;60.87;101501.00;5077596;28;45364;-66
2022/01/31 01:48:00;;;;;;;;;5.00;2.50;;;;;7.99;60.45;101491.25;5075206;27;45354;-63
2022/01/31 01:50:26;;;;;;;;;8.75;3.75;;;;;8.01;61.32;101497.38;5076822;27;45417;-63
2022/01/31 01:52:52;;;;;;;;;3.00;1.00;;;;;7.95;61.56;101494.94;5076752;27;46267;-62
2022/01/31 01:55:18;;;;;;;;;3.50;2.00;;;;;7.98;61.54;101489.53;5077149;27;45483;-64
2022/01/31 01:57:43;;;;;;;;;3.50;2.00;;;;;8.02;62.12;101485.00;5074571;28;45408;-64
2022/01/31 02:00:15;;;;;;;;;5.75;2.00;;;;;8.04;61.60;101497.28;5077333;27;45589;-63
2022/01/31 02:02:43;;;;;;;;;5.00;1.00;;;;;8.01;62.29;101501.81;5076578;28;46282;-64
2022/01/31 02:05:09;;;;;;;;;3.75;2.50;;;;;8.02;62.25;101495.59;5078419;27;45476;-62
2022/01/31 02:07:38;;;;;;;;;2.00;2.00;;;;;8.00;62.33;101498.28;5078228;27;45537;-63
2022/01/31 02:10:06;;;;;;;;;3.25;3.25;;;;;8.03;63.03;101495.53;5078627;27;45675;-63
2022/01/31 02:12:38;;;;;;;;;2.00;2.00;;;;;8.06;62.63;101482.19;5076693;28;45416;-62
2022/01/31 02:15:05;;;;;;;;;4.25;2.00;;;;;8.05;63.33;101475.16;5078129;27;45312;-61
2022/01/31 02:17:30;;;;;;;;;1.50;1.50;;;;;8.07;61.91;101459.22;5078209;27;45261;-61
2022/01/31 02:19:56;;;;;;;;;3.25;2.00;;;;;8.05;63.10;101453.09;5077738;27;45594;-63
2022/01/31 02:22:21;;;;;;;;;5.50;3.25;;;;;8.08;63.41;101447.72;5076646;27;46042;-63
2022/01/31 02:24:47;;;;;;;;;8.50;3.25;;;;;7.98;63.33;101448.00;5078269;27;45299;-61
2022/01/31 02:27:12;;;;;;;;;3.25;2.00;;;;;8.10;63.78;101446.75;5075323;28;45599;-59
2022/01/31 02:29:38;;;;;;;;;2.00;2.00;;;;;8.13;63.35;101446.66;5078810;27;45518;-62
2022/01/31 02:32:04;;;;;;;;;2.00;0.25;;;;;8.20;64.26;101444.66;5093539;27;47280;-60
2022/01/31 02:34:29;;;;;;;;;9.75;2.00;;;;;8.19;64.31;101419.94;5077376;27;45430;-62
2022/01/31 02:36:54;;;;;;;;;1.25;1.25;;;;;8.18;64.24;101407.63;5076810;27;45376;-62
2022/01/31 02:39:20;;;;;;;;;2.75;2.75;;;;;8.18;64.18;101420.88;5078321;27;45374;-59
2022/01/31 02:41:46;;;;;;;;;1.25;1.00;;;;;8.22;64.96;101429.59;5076795;27;46312;-60
2022/01/31 02:44:16;;;;;;;;;4.75;2.00;;;;;8.22;64.68;101446.38;5075550;28;45854;-60
2022/01/31 02:46:52;;;;;;;;;2.00;1.00;;;;;8.19;64.92;101413.78;5077816;27;45480;-61
2022/01/31 02:49:21;;;;;;;;;5.00;3.00;;;;;7.89;64.83;101354.72;5077214;27;45503;-65
2022/01/31 02:51:54;;;;;;;;;3.50;3.50;;;;;8.22;65.68;101409.28;5076310;28;46121;-65
2022/01/31 02:54:19;;;;;;;;;1.00;1.00;;;;;8.18;65.66;101402.31;5076483;28;45461;-66
2022/01/31 02:56:45;;;;;;;;;1.00;1.00;;;;;8.19;66.05;101397.88;5077834;27;45484;-65
2022/01/31 02:59:10;;;;;;;;;2.00;2.00;;;;;8.23;66.50;101399.53;5077047;27;45542;-68
2022/01/31 03:01:37;;;;;;;;;4.75;2.75;;;;;8.20;66.16;101386.38;5077381;28;45321;-62
2022/01/31 03:04:03;;;;;;;;;7.50;4.50;;;;;8.24;66.09;101386.22;5076758;28;45471;-64
2022/01/31 03:06:29;;;;;;;;;2.50;1.00;;;;;8.19;66.78;101360.78;5077388;27;45417;-63
2022/01/31 03:08:55;;;;;;;;;1.75;1.75;;;;;8.26;66.91;101352.59;5076110;27;45222;-62
2022/01/31 03:11:20;;;;;;;;;0.00;0.00;;;;;8.25;67.09;101350.84;5077169;27;45417;-64
2022/01/31 03:13:45;;;;;;;;;1.25;1.00;;;;;8.30;67.07;101353.34;5075890;28;45467;-63
2022/01/31 03:16:11;;;;;;;;;3.00;1.00;;;;;8.28;67.18;101348.09;5076227;27;45417;-64
2022/01/31 03:18:37;;;;;;;;;1.00;1.00;;;;;8.29;67.80;101347.19;5076812;28;45429;-65
2022/01/31 03:21:02;;;;;;;;;4.75;2.00;;;;;8.23;68.48;101352.69;5076929;27;46077;-65
2022/01/31 03:23:28;;;;;;;;;1.00;1.00;;;;;8.20;67.83;101349.25;5077083;27;45265;-62
2022/01/31 03:25:53;;;;;;;;;3.00;2.50;;;;;8.22;68.56;101350.97;5076937;27;45314;-66
2022/01/31 03:28:19;;;;;;;;;2.00;1.00;;;;;8.25;68.10;101342.03;5077018;28;45548;-64
2022/01/31 03:30:44;;;;;;;;;2.25;1.00;;;;;8.28;68.51;101365.78;5075104;27;45570;-66
2022/01/31 03:33:10;;;;;;;;;1.50;1.25;;;;;8.27;69.16;101358.75;5066270;27;45497;-64
2022/01/31 03:35:36;;;;;;;;;1.00;1.00;;;;;8.26;68.67;101335.81;5077148;27;45455;-65
2022/01/31 03:38:01;;;;;;;;;3.50;1.00;;;;;8.31;68.97;101335.66;5077248;28;45283;-64
2022/01/31 03:40:27;;;;;;;;;5.75;1.50;;;;;8.30;69.53;101337.44;5076778;27;45598;-66
2022/01/31 03:42:52;;;;;;;;;2.00;2.00;;;;;8.28;70.09;101313.66;5076379;28;45558;-66
2022/01/31 03:45:19;;;;;;;;;1.00;1.00;;;;;8.36;70.82;101320.50;5076997;27;45446;-70
2022/01/31 03:47:46;;;;;;;;;1.00;1.00;;;;;8.36;70.99;101304.59;5077234;28;45883;-66
2022/01/31 03:50:17;;;;;;;;;1.00;1.00;;;;;8.31;71.28;101325.06;5075826;28;47395;-66
2022/01/31 03:52:42;;;;;;;;;1.25;1.25;;;;;8.27;72.05;101319.88;5066789;27;45466;-69
2022/01/31 03:55:10;;;;;;;;;4.25;2.25;;;;;8.31;72.98;101306.50;5056128;28;45357;-66
2022/01/31 03:57:36;;;;;;;;;1.50;1.50;;;;;8.24;72.72;101274.94;5072613;28;45471;-68
2022/01/31 04:00:05;;;;;;;;;1.50;1.00;;;;;8.23;72.54;101310.31;5076201;28;46116;-68
2022/01/31 04:02:30;;;;;;;;;1.00;1.00;;;;;8.17;73.94;101325.53;5076663;27;45340;-66
2022/01/31 04:04:56;;;;;;;;;0.00;0.00;;;;;8.17;74.56;101330.84;5076246;27;45408;-67
2022/01/31 04:07:21;;;;;;;;;2.00;0.50;;;;;8.05;74.74;101307.41;5075431;27;45551;-66
2022/01/31 04:09:47;;;;;;;;;1.00;1.00;;;;;8.08;73.49;101300.25;5076261;28;46103;-68
2022/01/31 04:12:12;;;;;;;;;1.25;1.00;;;;;8.07;73.98;101313.50;5076517;27;45454;-68
2022/01/31 04:14:39;;;;;;;;;1.00;1.00;;;;;8.03;74.69;101312.75;5075438;28;45345;-68
2022/01/31 04:17:08;;;;;;;;;0.75;0.50;;;;;8.08;75.45;101318.78;5076437;27;45299;-68
2022/01/31 04:19:33;;;;;;;;;5.00;1.00;;;;;8.13;75.61;101340.69;5074643;28;45518;-68
2022/01/31 04:21:59;;;;;;;;;0.50;0.50;;;;;8.16;75.39;101334.41;5074603;27;45255;-67
2022/01/31 04:24:31;;;;;;;;;2.50;0.50;;;;;8.19;75.12;101340.44;5076106;27;45415;-69
2022/01/31 04:27:00;;;;;;;;;0.75;0.00;;;;;8.10;75.06;101324.03;5076642;27;45429;-69
2022/01/31 04:29:29;;;;;;;;;0.50;0.50;;;;;8.15;75.62;101344.13;5075496;27;45992;-61
2022/01/31 04:31:55;;;;;;;;;3.50;0.50;;;;;8.27;75.45;101354.31;5074560;28;45463;-62
2022/01/31 04:34:22;;;;;;;;;0.00;0.00;;;;;8.18;75.43;101333.44;5076236;28;45419;-60
2022/01/31 04:36:47;;;;;;;;;0.75;0.75;;;;;8.33;75.51;101368.25;5075300;27;45346;-64
2022/01/31 04:39:17;;;;;;;;;3.25;1.00;;;;;8.24;75.34;101338.53;5076063;27;45370;-66
2022/01/31 04:41:44;;;;;;;;;2.00;1.00;;;;;8.34;74.80;101335.56;5076058;27;45275;-66
2022/01/31 04:44:10;;;;;;;;;1.00;1.00;;;;;8.41;75.11;101345.06;5074243;28;45429;-68
2022/01/31 04:46:35;;;;;;;;;0.75;0.75;;;;;8.42;74.72;101336.19;5075196;28;45469;-71
2022/01/31 04:49:01;;;;;;;;;0.75;0.75;;;;;8.43;74.75;101322.00;5075620;27;45249;-68
2022/01/31 04:51:26;;;;;;;;;1.00;1.00;;;;;8.49;74.06;101327.09;5075539;27;45476;-68
2022/01/31 04:53:52;;;;;;;;;2.00;2.00;;;;;8.48;74.72;101309.47;5074586;28;45430;-68
2022/01/31 04:56:17;;;;;;;;;0.25;0.25;;;;;8.54;75.07;101323.34;5075935;27;45668;-65
2022/01/31 04:58:43;;;;;;;;;3.00;0.50;;;;;8.37;74.69;101286.00;5075644;27;45315;-65
2022/01/31 05:01:09;;;;;;;;;0.00;0.00;;;;;8.61;74.80;101339.06;5074244;27;45353;-64
2022/01/31 05:03:34;;;;;;;;;0.75;0.75;;;;;8.63;74.19;101343.38;5076228;28;45891;-63
2022/01/31 05:06:00;;;;;;;;;2.50;1.00;;;;;8.66;73.11;101345.91;5076400;27;45539;-72
2022/01/31 05:08:28;;;;;;;;;0.50;0.50;;;;;8.70;72.75;101352.81;5075875;28;45965;-65
2022/01/31 05:10:54;;;;;;;;;0.75;0.75;;;;;8.70;71.82;101344.00;5075260;27;45486;-68
2022/01/31 05:13:20;;;;;;;;;1.00;1.00;;;;;8.69;71.92;101351.09;5075417;27;45464;-69
2022/01/31 05:15:46;;;;;;;;;0.75;0.75;;;;;8.69;72.04;101372.31;5076273;28;45563;-69
2022/01/31 05:18:13;;;;;;;;;1.00;0.75;;;;;8.71;71.34;101367.81;5072620;28;45326;-67
2022/01/31 05:20:38;;;;;;;;;1.00;1.00;;;;;8.67;68.67;101378.59;5074777;27;45259;-65
2022/01/31 05:23:05;;;;;;;;;1.00;1.00;;;;;8.57;68.07;101354.19;5072680;27;45429;-64
2022/01/31 05:25:31;;;;;;;;;1.00;1.00;;;;;8.62;68.20;101362.88;5075414;27;45465;-64
2022/01/31 05:27:56;;;;;;;;;3.00;1.00;;;;;8.58;67.62;101364.75;5074805;28;45427;-64
2022/01/31 05:30:23;;;;;;;;;5.00;1.50;;;;;8.66;66.85;101387.47;5075422;27;45423;-65
2022/01/31 05:32:49;;;;;;;;;1.50;1.50;;;;;8.71;67.47;101365.16;5074724;27;45440;-64
2022/01/31 05:35:14;;;;;;;;;1.00;1.00;;;;;8.68;66.82;101380.31;5059085;28;45395;-63
2022/01/31 05:37:41;;;;;;;;;1.00;1.00;;;;;8.72;66.79;101385.47;5058411;28;46188;-63
2022/01/31 05:40:07;;;;;;;;;3.75;0.00;;;;;8.72;66.23;101379.28;5088073;27;45266;-64
2022/01/31 05:42:33;;;;;;;;;2.50;2.00;;;;;8.76;68.08;101399.50;5078278;27;45278;-62
2022/01/31 05:44:58;;;;;;;;;0.25;0.25;;;;;8.79;68.05;101388.78;5078567;27;45621;-64
2022/01/31 05:47:24;;;;;;;;;1.00;1.00;;;;;8.81;67.91;101371.88;5077062;28;45968;-64
2022/01/31 05:49:49;;;;;;;;;0.75;0.75;;;;;8.84;67.56;101371.75;5079040;27;45205;-67
2022/01/31 05:52:15;;;;;;;;;0.75;0.75;;;;;8.86;65.73;101385.84;5077266;28;46909;-63
2022/01/31 05:54:42;;;;;;;;;2.50;1.75;;;;;8.83;65.65;101393.91;5078853;27;45464;-66
2022/01/31 05:57:09;;;;;;;;;2.25;0.00;;;;;8.82;66.28;101383.34;5074217;27;45473;-66
2022/01/31 05:59:35;;;;;;;;;2.00;0.00;;;;;8.82;66.16;101383.34;5077111;28;45381;-66
2022/01/31 06:02:01;;;;;;;;;2.50;2.00;;;;;8.74;64.83;101358.91;5076546;28;45565;-67
2022/01/31 06:04:30;;;;;;;;;2.00;0.50;;;;;8.76;65.48;101365.88;5094242;27;45214;-63
2022/01/31 06:06:57;;;;;;;;;1.00;1.00;;;;;8.74;65.16;101373.03;5077979;27;45318;-63
2022/01/31 06:09:22;;;;;;;;;2.00;1.00;;;;;8.73;64.53;101383.69;5077963;27;45373;-64
2022/01/31 06:11:49;;;;;;;;;0.00;0.00;;;;;8.67;64.62;101390.06;5077270;28;45553;-62
2022/01/31 06:14:16;;;;;;;;;1.00;1.00;;;;;8.69;64.93;101393.53;5076072;27;45690;-69
2022/01/31 06:16:42;;;;;;;;;1.75;0.50;;;;;8.69;64.78;101396.19;5077511;28;47531;-63
2022/01/31 06:19:07;;;;;;;;;2.50;1.25;;;;;8.66;64.13;101408.69;5077922;27;45485;-62
2022/01/31 06:21:33;;;;;;;;;0.00;0.00;;;;;8.57;63.84;101416.03;5078316;27;45210;-61
2022/01/31 06:23:58;;;;;;;;;1.00;1.00;;;;;8.47;64.58;101400.53;5077805;27;45278;-62
2022/01/31 06:26:24;;;;;;;;;0.50;0.50;;;;;8.49;64.26;101381.00;5078567;28;45583;-60
2022/01/31 06:28:50;;;;;;;;;3.00;2.00;;;;;8.49;64.19;101393.38;5071256;27;45429;-61
2022/01/31 06:31:15;;;;;;;;;1.75;1.00;;;;;8.56;64.70;101405.47;5064642;27;45441;-66
2022/01/31 06:33:42;;;;;;;;;1.00;1.00;;;;;8.48;64.20;101394.31;5078021;27;45417;-62
2022/01/31 06:36:08;;;;;;;;;2.00;2.00;;;;;8.54;64.00;101413.50;5069242;27;46305;-63
2022/01/31 06:38:35;;;;;;;;;0.00;0.00;;;;;8.53;64.33;101405.59;5057645;28;45889;-61
2022/01/31 06:41:01;;;;;;;;;2.50;1.00;;;;;8.52;63.95;101406.53;5062897;28;45367;-64
2022/01/31 06:43:27;;;;;;;;;1.00;1.00;;;;;8.51;63.38;101399.50;5105778;27;45548;-61
2022/01/31 06:45:53;;;;;;;;;1.50;1.00;;;;;8.49;63.05;101407.50;5060854;28;45504;-61
2022/01/31 06:48:18;;;;;;;;;0.00;0.00;;;;;8.46;63.50;101407.63;5074783;28;45271;-61
2022/01/31 06:50:43;;;;;;;;;0.00;0.00;;;;;8.44;63.51;101408.56;5074016;27;45520;-59
2022/01/31 06:53:11;;;;;;;;;1.00;1.00;;;;;8.46;63.00;101422.63;5067851;28;45543;-64
2022/01/31 06:55:37;;;;;;;;;0.50;0.50;;;;;8.40;62.76;101406.94;5076031;28;45669;-63
2022/01/31 06:58:02;;;;;;;;;1.50;0.00;;;;;8.42;63.12;101410.41;5076938;27;45375;-56
2022/01/31 07:00:28;;;;;;;;;5.50;1.75;;;;;8.39;62.76;101410.50;5076016;27;45484;-57
2022/01/31 07:02:54;;;;;;;;;2.25;1.00;;;;;8.34;62.78;101408.03;5077071;27;45615;-59
2022/01/31 07:05:21;;;;;;;;;4.50;1.00;;;;;8.32;63.25;101420.41;5077322;27;46834;-59
2022/01/31 07:07:47;;;;;;;;;1.50;0.50;;;;;8.35;62.71;101424.78;5075000;28;45453;-61
2022/01/31 07:10:13;;;;;;;;;2.00;1.00;;;;;8.31;62.24;101418.66;5074704;27;45463;-61
2022/01/31 07:12:41;;;;;;;;;2.00;1.00;;;;;8.33;62.45;101414.19;5076728;27;45562;-60
2022/01/31 07:15:09;;;;;;;;;6.00;1.75;;;;;8.33;62.61;101411.53;5075443;28;47462;-60
2022/01/31 07:17:38;;;;;;;;;4.00;4.00;;;;;8.33;61.86;101422.13;5075801;28;45277;-59
2022/01/31 07:20:12;;;;;;;;;1.00;1.00;;;;;8.29;62.04;101421.38;5074923;27;45401;-62
2022/01/31 07:22:39;;;;;;;;;1.00;1.00;;;;;8.30;62.36;101446.09;5066602;28;45334;-60
2022/01/31 07:25:21;;;;;;;;;0.00;0.00;;;;;8.27;62.09;101444.41;5076977;27;46086;-57
2022/01/31 07:27:46;;;;;;;;;2.00;0.50;;;;;8.29;62.46;101453.19;5074853;27;45489;-58
2022/01/31 07:30:13;;;;;;;;;0.75;0.75;;;;;8.23;61.44;101440.16;5074277;27;45552;-56
2022/01/31 07:32:41;;;;;;;;;2.00;2.00;;;;;8.26;62.89;101442.69;5073790;27;45567;-52
2022/01/31 07:35:08;;;;;;;;;0.75;0.75;;;;;8.30;61.54;101448.75;5076562;27;45444;-52
2022/01/31 07:37:35;;;;;;;;;5.00;3.00;;;;;8.36;62.88;101463.63;5076704;27;45378;-56
2022/01/31 07:40:03;;;;;;;;;2.00;0.50;;;;;8.37;62.01;101441.50;5076701;27;45168;-53
2022/01/31 07:42:28;;;;;;;;;1.25;1.00;;;;;8.30;62.11;101459.34;5076942;27;45276;-56
